Time;durP1;ratioP1;P1;durP2;ratioP2;P2;SDS_P1;SDS_P2;PMS_P1;PMS_P2;Temp;Humidity;BMP_temperature;BMP_pressure;BME280_temperature;BME280_humidity;BME280_pressure;Samples;Min_cycle;Max_cycle;Signal;HPM_P1;HPM_P2
2022/01/14 00:01:26;;;;;;;233.43;182.15;;;20.40;39.20;;;;;;4742814;55;21009;-35
2022/01/14 00:06:27;;;;;;;227.93;176.02;;;20.40;39.20;;;;;;4748599;55;21055;-37
2022/01/14 00:11:30;;;;;;;230.80;182.90;;;20.40;39.10;;;;;;4768363;55;21082;-37
2022/01/14 00:16:32;;;;;;;224.43;173.30;;;20.40;39.20;;;;;;4740498;55;21476;-38
2022/01/14 00:21:35;;;;;;;221.57;169.50;;;20.40;39.10;;;;;;4744418;55;21014;-38
2022/01/14 00:32:01;;;;;;;227.80;173.95;;;20.30;38.90;;;;;;4737880;55;21085;-36
2022/01/14 00:37:03;;;;;;;227.32;173.07;;;20.40;39.00;;;;;;4737262;56;22381;-38
2022/01/14 00:42:05;;;;;;;221.95;171.32;;;20.30;38.80;;;;;;4753824;55;21125;-38
2022/01/14 00:47:06;;;;;;;222.07;166.40;;;20.30;38.80;;;;;;4752799;55;21047;-38
2022/01/14 00:52:07;;;;;;;221.10;172.35;;;20.30;38.80;;;;;;4787026;55;21236;-37
2022/01/14 01:02:17;;;;;;;220.10;172.52;;;20.30;38.70;;;;;;4739481;55;21133;-36
2022/01/14 01:07:19;;;;;;;217.45;165.15;;;20.30;38.70;;;;;;4740650;55;21521;-38
2022/01/14 01:12:39;;;;;;;226.90;175.00;;;20.30;38.70;;;;;;4755207;55;21503;-36
2022/01/14 01:17:41;;;;;;;221.27;168.75;;;20.30;38.60;;;;;;4776574;55;21096;-36
2022/01/14 01:22:42;;;;;;;208.85;159.02;;;20.30;38.60;;;;;;4749930;55;21094;-36
2022/01/14 01:27:44;;;;;;;214.02;162.73;;;20.30;38.60;;;;;;4740811;55;21484;-35
2022/01/14 01:32:47;;;;;;;210.15;162.95;;;20.30;38.50;;;;;;4758733;55;21568;-37
2022/01/14 01:37:48;;;;;;;218.20;163.32;;;20.30;38.50;;;;;;4781162;55;21105;-37
2022/01/14 01:42:50;;;;;;;213.82;162.90;;;20.30;38.50;;;;;;4777010;55;21057;-38
2022/01/14 01:47:54;;;;;;;205.75;155.35;;;20.20;38.50;;;;;;4739043;55;21085;-38
2022/01/14 01:52:56;;;;;;;204.87;156.85;;;20.20;38.30;;;;;;4753122;55;21475;-38
2022/01/14 01:57:56;;;;;;;210.82;160.52;;;20.30;38.40;;;;;;4761617;55;21070;-39
2022/01/14 02:02:59;;;;;;;203.95;156.93;;;20.20;38.30;;;;;;4737937;59;21556;-36
2022/01/14 02:08:00;;;;;;;197.07;152.57;;;20.20;38.30;;;;;;4754500;55;21054;-38
2022/01/14 02:13:01;;;;;;;200.18;150.95;;;20.20;38.30;;;;;;4746767;55;21010;-38
2022/01/14 02:25:45;;;;;;;206.02;155.77;;;20.20;38.40;;;;;;4747938;55;21090;-37
2022/01/14 02:30:48;;;;;;;195.87;149.15;;;20.20;38.30;;;;;;4785688;55;21594;-38
2022/01/14 02:35:51;;;;;;;199.00;150.12;;;20.20;38.20;;;;;;4749203;55;21807;-37
2022/01/14 02:40:52;;;;;;;197.18;150.40;;;20.20;38.30;;;;;;4790835;55;21544;-37
2022/01/14 02:45:56;;;;;;;192.82;148.27;;;20.20;38.10;;;;;;4749938;55;21045;-38
2022/01/14 02:51:08;;;;;;;192.27;146.75;;;20.20;38.10;;;;;;4759883;55;21539;-36
2022/01/14 02:56:18;;;;;;;192.80;146.70;;;20.20;38.20;;;;;;4737573;59;21618;-37
2022/01/14 03:01:23;;;;;;;192.07;146.90;;;20.20;38.10;;;;;;4754076;55;21079;-37
2022/01/14 03:06:26;;;;;;;187.35;144.40;;;20.10;38.00;;;;;;4772259;55;21528;-38
2022/01/14 03:11:39;;;;;;;185.90;141.05;;;20.10;38.00;;;;;;4765525;55;21038;-38
2022/01/14 03:16:42;;;;;;;189.40;142.48;;;20.10;37.90;;;;;;4740698;55;21050;-38
2022/01/14 03:21:43;;;;;;;185.50;140.30;;;20.10;38.00;;;;;;4738474;59;21452;-38
2022/01/14 03:26:46;;;;;;;180.45;137.07;;;20.10;37.90;;;;;;4746880;55;21082;-38
2022/01/14 03:31:47;;;;;;;176.95;133.48;;;20.20;38.00;;;;;;4762563;55;21037;-38
2022/01/14 03:36:48;;;;;;;180.02;138.80;;;20.10;37.90;;;;;;4771597;55;21018;-38
2022/01/14 03:41:52;;;;;;;177.95;136.43;;;20.10;37.90;;;;;;4739043;59;21018;-36
2022/01/14 03:46:53;;;;;;;176.02;132.45;;;20.10;37.80;;;;;;4836609;55;21022;-37
2022/01/14 03:51:53;;;;;;;176.48;134.87;;;20.10;37.80;;;;;;4746440;55;21468;-37
2022/01/14 03:56:54;;;;;;;175.68;135.20;;;20.10;37.90;;;;;;4749202;55;21077;-36
2022/01/14 04:01:55;;;;;;;173.45;132.82;;;20.10;37.70;;;;;;4757105;55;21022;-36
2022/01/14 04:06:56;;;;;;;173.43;133.48;;;20.10;37.70;;;;;;4738792;55;21480;-37
2022/01/14 04:12:00;;;;;;;164.05;126.78;;;20.10;37.70;;;;;;4739811;55;21082;-38
2022/01/14 04:17:02;;;;;;;168.48;130.60;;;20.10;37.70;;;;;;4803237;55;21492;-39
2022/01/14 04:22:03;;;;;;;162.10;125.10;;;20.10;37.70;;;;;;4746474;55;21009;-37
2022/01/14 04:27:05;;;;;;;164.65;127.70;;;20.10;37.80;;;;;;4762240;55;21061;-37
2022/01/14 04:32:06;;;;;;;165.45;127.03;;;20.10;37.70;;;;;;4737800;59;20982;-38
2022/01/14 04:37:07;;;;;;;165.52;128.25;;;20.10;37.70;;;;;;4739875;55;21129;-35
2022/01/14 04:42:09;;;;;;;159.57;122.15;;;20.10;37.80;;;;;;4757363;55;21516;-38
2022/01/14 04:47:18;;;;;;;163.73;127.82;;;20.10;37.80;;;;;;4776732;55;21058;-38
2022/01/14 04:52:19;;;;;;;154.85;120.97;;;20.10;37.80;;;;;;4776461;55;21474;-36
2022/01/14 04:57:21;;;;;;;159.77;123.93;;;20.10;37.80;;;;;;4737251;59;20994;-38
2022/01/14 05:02:22;;;;;;;164.05;123.35;;;20.00;37.80;;;;;;4849001;55;21033;-37
2022/01/14 05:07:26;;;;;;;158.15;123.62;;;20.00;37.80;;;;;;4751440;55;21528;-37
2022/01/14 05:12:27;;;;;;;153.05;119.65;;;20.00;37.90;;;;;;4814017;55;21531;-36
2022/01/14 05:17:28;;;;;;;152.73;119.35;;;20.10;37.90;;;;;;4781026;55;21073;-38
2022/01/14 05:22:28;;;;;;;155.93;121.78;;;20.00;37.90;;;;;;4737782;59;21014;-37
2022/01/14 05:27:29;;;;;;;149.65;116.93;;;20.00;38.00;;;;;;4768412;55;20998;-35
2022/01/14 05:32:30;;;;;;;151.57;120.25;;;20.00;37.90;;;;;;4737775;59;21069;-39
2022/01/14 05:37:31;;;;;;;147.00;113.72;;;20.00;37.90;;;;;;4751465;55;21483;-38
2022/01/14 05:42:34;;;;;;;151.30;117.78;;;20.00;38.00;;;;;;4751342;55;21022;-35
2022/01/14 05:47:35;;;;;;;148.80;114.78;;;20.00;38.00;;;;;;4759048;55;21045;-38
2022/01/14 05:52:36;;;;;;;150.35;114.88;;;20.00;38.10;;;;;;4738908;59;21512;-39
2022/01/14 05:57:38;;;;;;;148.57;113.72;;;20.00;38.10;;;;;;4768658;55;21050;-38
2022/01/14 06:02:40;;;;;;;143.80;112.10;;;20.00;38.10;;;;;;4738153;59;21540;-39
2022/01/14 06:07:41;;;;;;;141.93;111.43;;;20.00;38.10;;;;;;4748124;55;21050;-40
2022/01/14 06:12:41;;;;;;;142.30;109.35;;;20.00;38.20;;;;;;4739949;55;21018;-37
2022/01/14 06:17:42;;;;;;;144.48;112.47;;;20.00;38.70;;;;;;4742601;55;21092;-36
2022/01/14 06:22:43;;;;;;;144.45;115.32;;;20.00;38.20;;;;;;4773999;55;21086;-39
2022/01/14 06:27:47;;;;;;;142.45;109.65;;;20.00;38.20;;;;;;4740174;55;21006;-34
2022/01/14 06:32:52;;;;;;;138.48;108.97;;;20.00;38.20;;;;;;4770529;55;21587;-38
2022/01/14 06:37:52;;;;;;;137.95;109.35;;;20.00;38.20;;;;;;4737327;59;21120;-37
2022/01/14 06:42:54;;;;;;;137.77;109.50;;;20.00;38.80;;;;;;4795340;55;20998;-36
2022/01/14 06:47:55;;;;;;;133.27;104.97;;;20.00;38.10;;;;;;4738638;55;21210;-38
2022/01/14 06:52:55;;;;;;;139.48;107.12;;;20.00;38.40;;;;;;4780461;55;21539;-47
2022/01/14 06:57:56;;;;;;;133.77;106.53;;;19.90;38.10;;;;;;4742822;55;21030;-34
2022/01/14 07:02:57;;;;;;;139.32;108.80;;;19.90;38.10;;;;;;4778907;55;21130;-37
2022/01/14 07:07:58;;;;;;;136.00;107.37;;;19.90;38.10;;;;;;4749941;55;21087;-37
2022/01/14 07:12:59;;;;;;;137.20;107.87;;;19.90;38.00;;;;;;4742348;55;21029;-38
2022/01/14 07:18:00;;;;;;;137.48;109.55;;;19.90;38.10;;;;;;4738388;59;21476;-37
2022/01/14 07:23:00;;;;;;;137.52;107.28;;;19.90;38.10;;;;;;4768614;55;21093;-36
2022/01/14 07:28:01;;;;;;;132.48;103.62;;;19.90;38.00;;;;;;4738042;59;21551;-37
2022/01/14 07:33:02;;;;;;;134.27;101.90;;;19.90;38.00;;;;;;4773689;55;21541;-36
2022/01/14 07:38:03;;;;;;;135.12;107.43;;;19.90;38.00;;;;;;4747319;55;21069;-34
2022/01/14 07:43:04;;;;;;;136.70;106.95;;;19.90;38.00;;;;;;4746371;55;21484;-39
2022/01/14 07:48:05;;;;;;;135.80;106.60;;;19.90;37.90;;;;;;4778673;55;20994;-38
2022/01/14 07:53:07;;;;;;;135.25;105.10;;;19.90;38.10;;;;;;4745155;55;21558;-40
2022/01/14 07:58:08;;;;;;;139.93;108.35;;;19.90;37.90;;;;;;4736708;59;21030;-38
2022/01/14 08:03:09;;;;;;;139.80;109.18;;;19.90;37.90;;;;;;4779824;55;20990;-36
2022/01/14 08:08:10;;;;;;;135.80;109.05;;;19.90;37.90;;;;;;4742602;55;21468;-37
2022/01/14 08:13:11;;;;;;;134.30;105.47;;;19.90;38.00;;;;;;4744965;55;21034;-37
2022/01/14 08:18:12;;;;;;;140.05;108.10;;;20.00;38.30;;;;;;4777391;55;21077;-34
2022/01/14 08:23:13;;;;;;;135.93;104.30;;;20.00;38.50;;;;;;4744371;55;21014;-33
2022/01/14 08:28:14;;;;;;;134.00;105.60;;;20.00;38.80;;;;;;4748178;55;21096;-33
2022/01/14 08:33:14;;;;;;;144.02;111.75;;;20.10;39.00;;;;;;4748303;55;21551;-37
2022/01/14 08:38:16;;;;;;;136.93;108.28;;;20.10;39.10;;;;;;4820380;55;21042;-35
2022/01/14 08:43:16;;;;;;;140.15;109.78;;;20.20;39.40;;;;;;4749039;55;21129;-35
2022/01/14 08:48:18;;;;;;;142.27;111.72;;;20.30;39.70;;;;;;4749553;55;21546;-37
2022/01/14 08:53:19;;;;;;;140.85;109.30;;;20.30;39.90;;;;;;4766894;55;21058;-35
2022/01/14 08:58:20;;;;;;;146.82;115.20;;;20.40;40.20;;;;;;4771337;55;21061;-36
2022/01/14 09:03:21;;;;;;;146.27;115.43;;;20.40;40.30;;;;;;4737618;55;21066;-36
2022/01/14 09:08:22;;;;;;;148.23;117.15;;;20.40;40.50;;;;;;4737761;55;21089;-37
2022/01/14 09:13:23;;;;;;;152.00;116.88;;;20.50;40.60;;;;;;4787826;55;21083;-37
2022/01/14 09:18:24;;;;;;;151.98;118.25;;;20.50;40.80;;;;;;4755164;55;21499;-30
2022/01/14 09:23:25;;;;;;;146.82;115.20;;;20.50;41.00;;;;;;4746666;55;21018;-32
2022/01/14 09:28:28;;;;;;;154.05;118.30;;;20.50;41.10;;;;;;4786830;55;21519;-33
2022/01/14 09:33:29;;;;;;;151.90;115.82;;;20.50;41.20;;;;;;4742215;55;21476;-33
2022/01/14 09:38:31;;;;;;;161.30;125.12;;;20.50;41.60;;;;;;4744225;55;21480;-36
2022/01/14 09:43:36;;;;;;;159.50;124.05;;;20.50;41.30;;;;;;4797428;55;21029;-33
2022/01/14 09:48:38;;;;;;;160.98;122.93;;;20.50;41.30;;;;;;4739182;55;21644;-36
2022/01/14 09:53:39;;;;;;;159.95;121.60;;;20.50;41.00;;;;;;4762594;55;21002;-33
2022/01/14 09:58:46;;;;;;;161.05;121.45;;;20.50;41.00;;;;;;4738045;55;21018;-36
2022/01/14 10:04:02;;;;;;;171.17;129.57;;;20.50;41.00;;;;;;4738021;59;21507;-34
2022/01/14 10:09:58;;;;;;;167.05;131.73;;;20.50;41.00;;;;;;4775320;55;21518;-33
2022/01/14 10:15:10;;;;;;;164.18;128.25;;;20.50;41.00;;;;;;4746584;55;21527;-34
2022/01/14 10:20:14;;;;;;;170.85;133.27;;;20.60;41.30;;;;;;4740858;55;21574;-35
2022/01/14 10:25:20;;;;;;;169.00;132.23;;;20.60;41.40;;;;;;4757565;55;21165;-37
2022/01/14 10:30:31;;;;;;;166.73;128.45;;;20.60;41.60;;;;;;4772189;55;21026;-39
2022/01/14 10:35:39;;;;;;;164.27;129.38;;;20.70;41.80;;;;;;4762429;55;21563;-44
2022/01/14 10:40:55;;;;;;;168.75;130.98;;;20.70;41.90;;;;;;4772717;55;21527;-38
2022/01/14 10:45:57;;;;;;;165.75;130.73;;;20.80;42.10;;;;;;4745186;55;21073;-36
2022/01/14 10:51:01;;;;;;;177.65;132.73;;;20.80;42.90;;;;;;4770233;55;21002;-39
2022/01/14 10:56:09;;;;;;;179.63;133.90;;;20.80;42.40;;;;;;4775680;55;21523;-44
2022/01/14 11:01:13;;;;;;;176.32;135.85;;;20.90;42.50;;;;;;4756710;55;21030;-42
2022/01/14 11:06:38;;;;;;;180.43;140.25;;;20.90;42.70;;;;;;4769178;55;21591;-35
2022/01/14 11:11:44;;;;;;;179.00;136.32;;;20.90;42.90;;;;;;4776555;55;21547;-34
2022/01/14 11:16:46;;;;;;;191.95;146.07;;;21.00;43.00;;;;;;4773229;55;21058;-28
2022/01/14 11:27:11;;;;;;;192.10;149.00;;;21.10;43.40;;;;;;4757450;55;21500;-33
2022/01/14 11:32:12;;;;;;;192.07;147.98;;;21.00;43.50;;;;;;4738958;55;21093;-36
2022/01/14 11:37:34;;;;;;;197.60;152.68;;;21.10;43.60;;;;;;4739904;55;21560;-35
2022/01/14 11:46:11;;;;;;;203.07;152.45;;;21.10;43.70;;;;;;4760242;55;21486;-44
2022/01/14 11:51:15;;;;;;;209.85;162.12;;;21.20;44.00;;;;;;4788052;55;21511;-30
2022/01/14 11:59:48;;;;;;;209.75;157.82;;;21.20;44.00;;;;;;4762813;55;21062;-31
2022/01/14 12:05:07;;;;;;;210.95;164.13;;;21.20;44.40;;;;;;4761607;55;21531;-33
2022/01/14 12:10:09;;;;;;;216.05;167.07;;;21.20;44.40;;;;;;4760056;55;21800;-36
2022/01/14 12:15:47;;;;;;;216.55;165.15;;;21.20;44.60;;;;;;4769472;55;21474;-35
2022/01/14 12:20:49;;;;;;;233.63;179.98;;;21.20;44.50;;;;;;4742481;55;21523;-28
2022/01/14 12:25:50;;;;;;;236.20;183.55;;;21.10;44.40;;;;;;4744977;55;21033;-30
2022/01/14 12:31:02;;;;;;;231.38;179.65;;;21.10;44.30;;;;;;4762217;55;22083;-34
2022/01/14 12:36:18;;;;;;;233.82;185.55;;;21.00;44.20;;;;;;4737409;59;21673;-37
2022/01/14 12:41:24;;;;;;;239.10;186.37;;;21.00;44.00;;;;;;4737727;59;21076;-33
2022/01/14 12:52:14;;;;;;;242.27;193.45;;;21.00;44.10;;;;;;4737492;55;21302;-38
2022/01/14 12:57:19;;;;;;;248.85;195.57;;;21.00;44.10;;;;;;4742467;55;21487;-30
2022/01/14 13:02:25;;;;;;;250.80;202.23;;;21.00;44.30;;;;;;4782907;55;21082;-37
2022/01/14 13:07:27;;;;;;;244.55;194.48;;;21.00;44.40;;;;;;4752788;55;21073;-37
2022/01/14 13:12:33;;;;;;;250.32;198.57;;;21.00;44.60;;;;;;4751755;55;21037;-35
2022/01/14 13:17:38;;;;;;;254.85;208.85;;;21.00;44.70;;;;;;4759508;55;21499;-39
2022/01/14 13:22:42;;;;;;;244.87;199.32;;;21.10;44.90;;;;;;4768789;55;22093;-30
2022/01/14 13:27:57;;;;;;;259.80;210.18;;;21.10;45.10;;;;;;4759781;55;21085;-36
2022/01/14 13:33:00;;;;;;;252.68;197.55;;;21.10;45.20;;;;;;4773212;55;21046;-38
2022/01/14 13:38:07;;;;;;;264.65;215.55;;;21.10;45.40;;;;;;4750562;55;21042;-35
2022/01/14 13:43:16;;;;;;;260.67;207.60;;;21.10;45.60;;;;;;4779870;55;21046;-31
2022/01/14 13:48:25;;;;;;;259.20;209.02;;;21.10;45.60;;;;;;4756160;54;21003;-31
2022/01/14 13:53:34;;;;;;;260.55;212.25;;;21.10;45.80;;;;;;4757889;55;21603;-31
2022/01/14 13:58:36;;;;;;;264.48;212.27;;;21.10;46.00;;;;;;4762699;55;21022;-30
2022/01/14 14:03:52;;;;;;;268.40;214.25;;;21.10;46.10;;;;;;4761927;55;21507;-35
2022/01/14 14:09:07;;;;;;;262.90;208.95;;;21.10;46.20;;;;;;4750786;55;21547;-32
2022/01/14 14:20:03;;;;;;;265.70;214.32;;;21.10;46.50;;;;;;4775784;55;21049;-36
2022/01/14 14:25:13;;;;;;;266.98;214.93;;;21.10;46.60;;;;;;4757200;55;22079;-35
2022/01/14 14:30:15;;;;;;;269.60;214.40;;;21.10;46.60;;;;;;4741140;55;21563;-35
2022/01/14 14:35:18;;;;;;;262.38;204.57;;;21.10;46.70;;;;;;4736971;59;21464;-35
2022/01/14 14:40:25;;;;;;;271.77;221.95;;;21.10;46.90;;;;;;4737617;59;21014;-36
2022/01/14 14:45:28;;;;;;;265.90;212.70;;;21.10;46.90;;;;;;4742779;55;22180;-36
2022/01/14 14:50:30;;;;;;;272.27;216.77;;;21.10;47.00;;;;;;4754773;55;21105;-34
2022/01/14 14:55:32;;;;;;;267.73;213.30;;;21.20;47.30;;;;;;4751116;55;21557;-33
2022/01/14 15:00:33;;;;;;;267.50;217.20;;;21.10;47.20;;;;;;4767556;55;21512;-36
2022/01/14 15:05:39;;;;;;;273.98;214.27;;;21.10;47.30;;;;;;4785161;55;21072;-36
2022/01/14 15:10:40;;;;;;;273.80;220.85;;;21.10;47.10;;;;;;4734958;59;21102;-39
2022/01/14 15:16:13;;;;;;;285.65;230.32;;;20.90;47.00;;;;;;4786642;55;21038;-37
2022/01/14 15:21:13;;;;;;;269.62;220.02;;;20.90;47.00;;;;;;4791763;55;21606;-39
2022/01/14 15:26:14;;;;;;;286.12;231.73;;;20.80;46.80;;;;;;4743771;55;21073;-39
2022/01/14 15:31:15;;;;;;;286.48;230.77;;;20.80;46.80;;;;;;4770997;55;21362;-39
2022/01/14 15:36:16;;;;;;;288.05;230.02;;;20.80;46.70;;;;;;4787063;55;20983;-36
2022/01/14 15:41:17;;;;;;;282.12;227.60;;;20.70;46.60;;;;;;4758293;55;21006;-39
2022/01/14 15:46:18;;;;;;;289.70;234.07;;;20.70;46.50;;;;;;4738108;59;21021;-34
2022/01/14 15:51:24;;;;;;;289.70;231.52;;;20.60;46.40;;;;;;4755954;55;21074;-37
2022/01/14 15:56:25;;;;;;;295.50;244.10;;;20.70;46.30;;;;;;4759797;55;21511;-37
2022/01/14 16:01:26;;;;;;;285.30;233.02;;;20.60;46.20;;;;;;4774407;55;21041;-37
2022/01/14 16:06:27;;;;;;;288.15;233.30;;;20.60;46.10;;;;;;4740627;55;21468;-36
2022/01/14 16:11:27;;;;;;;299.92;244.45;;;20.60;46.10;;;;;;4766984;55;21058;-38
2022/01/14 16:16:28;;;;;;;295.52;242.57;;;20.50;46.00;;;;;;4741673;55;21018;-39
2022/01/14 16:21:29;;;;;;;291.83;240.12;;;20.50;45.90;;;;;;4750897;55;21014;-37
2022/01/14 16:26:30;;;;;;;304.27;247.77;;;20.50;45.80;;;;;;4742526;55;21463;-37
2022/01/14 16:31:31;;;;;;;296.80;240.98;;;20.40;45.70;;;;;;4758958;55;20986;-38
2022/01/14 16:36:33;;;;;;;304.77;247.30;;;20.40;45.70;;;;;;4743000;55;21050;-39
2022/01/14 16:41:35;;;;;;;300.38;243.12;;;20.40;45.60;;;;;;4742773;55;21046;-37
2022/01/14 16:46:36;;;;;;;301.62;249.73;;;20.40;45.50;;;;;;4742118;55;21002;-40
2022/01/14 16:51:37;;;;;;;306.33;249.68;;;20.40;45.50;;;;;;4743707;55;21544;-38
2022/01/14 16:56:38;;;;;;;299.00;248.38;;;20.40;45.50;;;;;;4791649;55;21025;-40
2022/01/14 17:01:39;;;;;;;292.85;244.73;;;20.40;45.40;;;;;;4738091;59;21013;-35
2022/01/14 17:06:40;;;;;;;308.35;250.73;;;20.30;45.30;;;;;;4749331;55;20982;-39
2022/01/14 17:11:42;;;;;;;299.88;244.80;;;20.30;45.30;;;;;;4742637;55;21081;-36
2022/01/14 17:16:44;;;;;;;298.00;244.35;;;20.30;45.20;;;;;;4737467;59;21528;-37
2022/01/14 17:21:45;;;;;;;305.90;254.45;;;20.30;45.20;;;;;;4773766;55;21547;-36
2022/01/14 17:26:46;;;;;;;308.15;249.73;;;20.30;45.10;;;;;;4785633;55;21078;-35
2022/01/14 17:31:47;;;;;;;297.73;246.60;;;20.30;45.10;;;;;;4738225;55;21002;-37
2022/01/14 17:36:51;;;;;;;310.48;252.57;;;20.30;45.00;;;;;;4791837;55;21078;-36
2022/01/14 17:41:52;;;;;;;306.23;252.23;;;20.20;45.00;;;;;;4759892;55;21002;-36
2022/01/14 17:46:55;;;;;;;305.60;254.23;;;20.20;45.00;;;;;;4740703;55;20994;-32
2022/01/14 17:51:59;;;;;;;315.40;258.98;;;20.20;44.90;;;;;;4778367;55;21575;-34
2022/01/14 17:57:00;;;;;;;307.83;256.87;;;20.20;44.90;;;;;;4754733;55;22337;-35
2022/01/14 18:02:01;;;;;;;315.30;257.75;;;20.20;44.90;;;;;;4774032;55;21026;-33
2022/01/14 18:07:02;;;;;;;307.95;248.75;;;20.20;44.80;;;;;;4758376;55;21048;-36
2022/01/14 18:12:18;;;;;;;314.88;259.17;;;20.20;44.70;;;;;;4750973;55;21084;-37
2022/01/14 18:17:18;;;;;;;310.50;253.40;;;20.20;44.70;;;;;;4741268;55;21606;-35
2022/01/14 18:22:19;;;;;;;313.27;256.05;;;20.20;44.70;;;;;;4737921;59;21034;-34
2022/01/14 18:27:20;;;;;;;306.13;256.17;;;20.20;44.60;;;;;;4754797;55;21527;-33
2022/01/14 18:32:21;;;;;;;320.17;264.88;;;20.20;44.60;;;;;;4747717;55;21487;-34
2022/01/14 18:37:22;;;;;;;314.85;256.73;;;20.20;44.60;;;;;;4738746;55;21618;-35
2022/01/14 18:42:23;;;;;;;318.15;258.20;;;20.10;44.50;;;;;;4748006;55;21009;-35
2022/01/14 18:47:24;;;;;;;323.25;263.08;;;20.10;44.50;;;;;;4773167;55;21073;-36
2022/01/14 18:52:28;;;;;;;317.50;259.55;;;20.10;44.40;;;;;;4742340;55;21141;-36
2022/01/14 18:57:29;;;;;;;313.95;253.55;;;20.10;44.40;;;;;;4756282;55;21089;-35
2022/01/14 19:02:30;;;;;;;311.27;257.52;;;20.10;44.40;;;;;;4743806;55;21169;-36
2022/01/14 19:07:31;;;;;;;319.20;260.23;;;20.10;44.40;;;;;;4758793;55;21049;-35
2022/01/14 19:12:31;;;;;;;314.88;260.02;;;20.10;44.30;;;;;;4742010;55;21021;-34
2022/01/14 19:17:33;;;;;;;324.35;261.40;;;20.10;44.30;;;;;;4755474;55;21049;-35
2022/01/14 19:22:34;;;;;;;317.37;260.90;;;20.10;44.30;;;;;;4769605;55;21515;-36
2022/01/14 19:27:36;;;;;;;324.37;265.73;;;20.10;44.30;;;;;;4753094;55;21066;-36
2022/01/14 19:32:37;;;;;;;318.35;263.48;;;20.10;44.30;;;;;;4802330;55;21535;-35
2022/01/14 19:37:38;;;;;;;317.80;260.38;;;20.10;44.30;;;;;;4809282;55;21986;-35
2022/01/14 19:42:39;;;;;;;323.55;264.85;;;20.10;44.20;;;;;;4820733;55;21041;-36
2022/01/14 19:47:40;;;;;;;317.92;262.50;;;20.10;44.30;;;;;;4744517;55;21511;-36
2022/01/14 19:52:41;;;;;;;320.50;263.27;;;20.10;44.30;;;;;;4786355;55;21014;-35
2022/01/14 19:57:42;;;;;;;314.73;258.05;;;20.10;44.20;;;;;;4736558;59;21037;-37
2022/01/14 20:02:45;;;;;;;312.33;255.12;;;20.10;44.20;;;;;;4811357;55;21001;-37
2022/01/14 20:07:46;;;;;;;323.50;261.10;;;20.10;44.20;;;;;;4872280;55;21920;-35
2022/01/14 20:12:47;;;;;;;321.98;265.80;;;20.00;44.10;;;;;;4753909;55;20997;-36
2022/01/14 20:17:49;;;;;;;320.77;259.62;;;20.10;44.20;;;;;;4784670;55;21488;-35
2022/01/14 20:22:50;;;;;;;324.62;263.23;;;20.00;44.10;;;;;;4737752;59;21535;-38
2022/01/14 20:27:51;;;;;;;308.25;253.65;;;20.00;44.00;;;;;;4743986;55;21026;-37
2022/01/14 20:32:53;;;;;;;320.48;263.45;;;20.00;44.60;;;;;;4758251;55;21496;-38
2022/01/14 20:37:53;;;;;;;316.40;261.10;;;20.00;44.00;;;;;;4806542;55;21574;-36
2022/01/14 20:43:00;;;;;;;313.62;259.23;;;20.00;44.00;;;;;;4750867;55;21014;-37
2022/01/14 20:48:04;;;;;;;320.45;260.55;;;20.00;44.10;;;;;;4740479;55;22058;-37
2022/01/14 20:53:05;;;;;;;320.30;263.05;;;20.00;43.90;;;;;;4750313;55;21085;-35
2022/01/14 20:58:08;;;;;;;315.00;261.80;;;20.00;43.90;;;;;;4737642;55;21034;-37
2022/01/14 21:03:09;;;;;;;324.05;261.73;;;20.00;43.90;;;;;;4815299;55;21463;-37
2022/01/14 21:08:10;;;;;;;315.40;259.12;;;20.00;43.80;;;;;;4741247;55;21129;-36
2022/01/14 21:13:11;;;;;;;316.80;259.62;;;20.00;43.80;;;;;;4768966;55;21018;-37
2022/01/14 21:18:12;;;;;;;305.92;240.43;;;20.00;43.80;;;;;;4778950;55;21030;-37
2022/01/14 21:23:12;;;;;;;312.33;252.80;;;20.00;43.70;;;;;;4760294;55;21129;-35
2022/01/14 21:28:13;;;;;;;320.90;260.75;;;20.00;43.70;;;;;;4737777;59;21013;-34
2022/01/14 21:33:15;;;;;;;321.83;263.40;;;20.00;43.70;;;;;;4737887;59;21018;-36
2022/01/14 21:38:16;;;;;;;313.35;253.50;;;20.00;43.70;;;;;;4736728;59;21049;-37
2022/01/14 21:43:17;;;;;;;316.92;260.02;;;20.00;43.70;;;;;;4746222;55;21476;-36
2022/01/14 21:48:18;;;;;;;319.85;258.00;;;20.00;43.60;;;;;;4743561;55;21509;-36
2022/01/14 21:53:19;;;;;;;317.48;256.60;;;20.00;43.60;;;;;;4755509;55;21015;-34
2022/01/14 21:58:23;;;;;;;322.27;260.00;;;19.90;43.50;;;;;;4827428;55;21029;-35
2022/01/14 22:03:24;;;;;;;313.90;253.07;;;19.90;43.40;;;;;;4753589;55;21006;-35
2022/01/14 22:08:25;;;;;;;314.83;256.02;;;19.90;43.40;;;;;;4737814;59;21085;-36
2022/01/14 22:13:30;;;;;;;308.63;251.07;;;19.90;43.40;;;;;;4789518;55;21547;-37
2022/01/14 22:18:31;;;;;;;315.83;251.12;;;19.90;43.40;;;;;;4738259;55;21552;-31
2022/01/14 22:23:32;;;;;;;317.05;255.70;;;19.90;43.30;;;;;;4753038;55;21022;-31
2022/01/14 22:28:33;;;;;;;312.90;253.25;;;19.90;43.30;;;;;;4738708;55;21486;-36
2022/01/14 22:33:34;;;;;;;318.55;253.95;;;19.90;43.30;;;;;;4758948;55;21136;-35
2022/01/14 22:38:35;;;;;;;315.37;253.65;;;19.90;43.20;;;;;;4744491;55;21093;-36
2022/01/14 22:43:36;;;;;;;316.88;251.73;;;19.90;43.10;;;;;;4738231;59;21049;-35
2022/01/14 22:48:36;;;;;;;314.65;252.00;;;19.90;43.10;;;;;;4770520;55;21058;-36
2022/01/14 22:53:39;;;;;;;319.48;252.77;;;19.90;43.10;;;;;;4738308;55;21049;-36
2022/01/14 22:58:40;;;;;;;317.95;252.57;;;19.90;43.10;;;;;;4795845;55;21499;-35
2022/01/14 23:03:41;;;;;;;324.23;258.60;;;19.90;43.00;;;;;;4759478;55;21029;-33
2022/01/14 23:08:42;;;;;;;320.58;258.00;;;19.90;43.60;;;;;;4765389;55;20990;-36
2022/01/14 23:13:42;;;;;;;313.10;250.55;;;19.90;42.90;;;;;;4739400;55;21049;-34
2022/01/14 23:18:43;;;;;;;313.92;248.68;;;19.90;42.90;;;;;;4745191;55;21480;-35
2022/01/14 23:23:45;;;;;;;313.73;253.00;;;19.90;42.90;;;;;;4745700;55;21073;-37
2022/01/14 23:28:45;;;;;;;326.00;259.23;;;19.90;42.80;;;;;;4760230;55;21018;-34
2022/01/14 23:33:46;;;;;;;320.37;250.82;;;19.90;42.80;;;;;;4746870;55;21480;-36
2022/01/14 23:38:47;;;;;;;321.27;251.23;;;19.90;42.70;;;;;;4777184;55;21014;-34
2022/01/14 23:44:13;;;;;;;321.42;256.35;;;19.90;42.70;;;;;;4803108;55;21019;-35
2022/01/14 23:49:14;;;;;;;311.60;244.65;;;19.80;42.60;;;;;;4750500;55;21495;-34
2022/01/14 23:54:15;;;;;;;317.73;249.73;;;19.90;42.70;;;;;;4779154;55;21025;-36
2022/01/14 23:59:17;;;;;;;313.67;245.27;;;19.80;42.50;;;;;;4798516;55;21013;-36
